Time;durP1;ratioP1;P1;durP2;ratioP2;P2;SDS_P1;SDS_P2;PMS_P1;PMS_P2;Temp;Humidity;BMP_temperature;BMP_pressure;BME280_temperature;BME280_humidity;BME280_pressure;Samples;Min_cycle;Max_cycle;Signal;HPM_P1;HPM_P2
2022/06/20 00:00:47;;;;;;;3.17;2.80;;;;;;;24.30;60.97;100606.28;4804114;29;20058;-69
2022/06/20 00:03:28;;;;;;;3.25;2.50;;;;;;;24.31;61.03;100610.66;4804892;29;20058;-71
2022/06/20 00:05:56;;;;;;;4.00;2.60;;;;;;;24.39;60.90;100618.00;4805505;29;20526;-69
2022/06/20 00:08:24;;;;;;;4.13;2.55;;;;;;;24.36;60.66;100620.72;4792486;29;20510;-69
2022/06/20 00:10:53;;;;;;;4.95;2.47;;;;;;;24.38;60.36;100619.19;4805111;29;20062;-69
2022/06/20 00:13:31;;;;;;;2.83;2.63;;;;;;;24.52;59.75;100615.00;4804879;29;20043;-69
2022/06/20 00:16:01;;;;;;;3.42;2.75;;;;;;;24.49;59.53;100618.56;4805492;29;20403;-69
2022/06/20 00:18:30;;;;;;;2.47;2.28;;;;;;;24.49;59.27;100616.53;4804701;29;20053;-69
2022/06/20 00:21:01;;;;;;;2.78;2.58;;;;;;;24.42;59.31;100611.66;4805034;29;20055;-69
2022/06/20 00:23:29;;;;;;;2.90;2.70;;;;;;;24.37;59.15;100617.56;4805296;29;20063;-70
2022/06/20 00:25:57;;;;;;;3.30;2.90;;;;;;;24.41;59.43;100615.66;4797503;29;20043;-70
2022/06/20 00:28:25;;;;;;;2.95;2.67;;;;;;;24.49;59.50;100612.97;4804409;29;20059;-70
2022/06/20 00:30:53;;;;;;;3.33;2.75;;;;;;;24.50;60.31;100614.56;4793950;29;20043;-69
2022/06/20 00:33:23;;;;;;;3.35;3.05;;;;;;;24.41;60.05;100607.25;4804882;29;20407;-69
2022/06/20 00:35:51;;;;;;;3.85;3.22;;;;;;;24.36;60.18;100601.97;4795080;29;20059;-69
2022/06/20 00:38:22;;;;;;;2.92;2.67;;;;;;;24.38;59.76;100602.41;4795856;29;20403;-69
2022/06/20 00:40:53;;;;;;;3.83;2.92;;;;;;;24.23;59.17;100600.53;4804895;29;20051;-69
2022/06/20 00:43:26;;;;;;;3.10;2.80;;;;;;;24.21;57.89;100598.13;4802910;29;20057;-69
2022/06/20 00:46:22;;;;;;;3.03;2.80;;;;;;;24.13;57.87;100596.38;4798647;29;20074;-69
2022/06/20 00:49:14;;;;;;;3.08;2.88;;;;;;;24.07;57.75;100597.84;4804892;29;20399;-69
2022/06/20 00:52:11;;;;;;;4.78;3.03;;;;;;;24.29;57.19;100587.84;4812881;29;20065;-69
2022/06/20 00:55:03;;;;;;;3.28;2.97;;;;;;;24.39;56.68;100586.44;4814415;29;20061;-69
2022/06/20 00:57:54;;;;;;;2.75;2.55;;;;;;;24.22;57.03;100579.34;4808107;29;20518;-69
2022/06/20 01:00:42;;;;;;;3.42;2.97;;;;;;;24.11;57.24;100582.81;4808188;29;20079;-69
2022/06/20 01:03:33;;;;;;;3.30;3.00;;;;;;;24.19;56.73;100588.50;4794886;29;20058;-69
2022/06/20 01:06:26;;;;;;;4.72;3.33;;;;;;;24.09;57.05;100593.53;4810979;29;20070;-69
2022/06/20 01:09:14;;;;;;;2.83;2.65;;;;;;;24.12;56.98;100590.00;4807788;29;20058;-69
2022/06/20 01:12:02;;;;;;;3.72;3.00;;;;;;;23.93;57.49;100584.41;4796227;29;20062;-69
2022/06/20 01:14:48;;;;;;;3.03;2.83;;;;;;;23.87;57.86;100581.97;4813128;29;20062;-70
2022/06/20 01:17:38;;;;;;;3.17;2.85;;;;;;;23.69;58.44;100580.78;4814093;29;20518;-69
2022/06/20 01:20:29;;;;;;;5.80;3.00;;;;;;;23.61;58.54;100583.47;4804391;29;20058;-69
2022/06/20 01:23:22;;;;;;;3.60;3.17;;;;;;;23.74;58.10;100580.50;4813559;29;20081;-69
2022/06/20 01:26:28;;;;;;;3.67;2.90;;;;;;;24.08;56.98;100577.94;4796771;29;20414;-69
2022/06/20 01:29:15;;;;;;;3.22;2.92;;;;;;;24.15;56.50;100572.47;4813285;29;20066;-69
2022/06/20 01:32:04;;;;;;;3.28;3.00;;;;;;;23.95;56.88;100570.91;4811844;29;20062;-69
2022/06/20 01:34:51;;;;;;;3.20;2.90;;;;;;;23.86;57.07;100566.34;4813598;29;20075;-69
2022/06/20 01:37:41;;;;;;;3.30;3.05;;;;;;;24.10;56.29;100560.81;4813361;29;20050;-69
2022/06/20 01:40:29;;;;;;;3.65;3.13;;;;;;;24.03;56.80;100562.28;4813053;29;20065;-69
2022/06/20 01:43:15;;;;;;;3.17;2.92;;;;;;;23.84;57.19;100557.53;4810777;29;20066;-69
2022/06/20 01:46:09;;;;;;;3.45;3.08;;;;;;;23.88;56.91;100564.00;4811301;29;20082;-69
2022/06/20 01:49:02;;;;;;;6.10;3.60;;;;;;;23.81;57.30;100558.31;4806962;29;20062;-69
2022/06/20 01:51:49;;;;;;;3.13;2.85;;;;;;;23.84;57.35;100553.94;4797777;29;20066;-69
2022/06/20 01:54:45;;;;;;;3.58;2.80;;;;;;;23.59;57.98;100543.94;4807323;29;20069;-69
2022/06/20 01:57:33;;;;;;;4.35;3.47;;;;;;;23.38;58.86;100537.94;4813221;29;20079;-69
2022/06/20 02:00:23;;;;;;;3.35;3.05;;;;;;;23.49;58.25;100552.91;4812700;29;20061;-69
2022/06/20 02:03:17;;;;;;;3.38;3.08;;;;;;;23.83;57.17;100544.75;4812127;29;20058;-69
2022/06/20 02:06:03;;;;;;;4.43;2.97;;;;;;;23.69;57.75;100547.28;4800575;29;20054;-69
2022/06/20 02:08:53;;;;;;;3.40;2.92;;;;;;;23.71;57.64;100550.53;4812734;29;20061;-69
2022/06/20 02:11:47;;;;;;;3.70;3.40;;;;;;;23.78;57.54;100547.03;4814168;29;20057;-69
2022/06/20 02:14:37;;;;;;;3.80;3.40;;;;;;;23.84;57.24;100549.16;4828583;29;20057;-69
2022/06/20 02:17:36;;;;;;;3.67;3.20;;;;;;;23.78;57.60;100550.66;4801430;29;20517;-69
2022/06/20 02:20:27;;;;;;;4.38;3.00;;;;;;;23.60;58.39;100550.31;4809120;29;20094;-69
2022/06/20 02:23:22;;;;;;;3.47;3.22;;;;;;;23.33;59.29;100544.63;4812654;29;20075;-69
2022/06/20 02:26:09;;;;;;;;;;;;;;;23.33;59.32;100534.28;4806832;29;20058;-69
2022/06/20 02:29:06;;;;;;;4.10;3.30;;;;;;;23.33;59.68;100536.25;4808440;29;19933;-70
2022/06/20 02:31:57;;;;;;;3.92;3.60;;;;;;;23.32;59.63;100535.44;4812562;29;20062;-69
2022/06/20 02:34:47;;;;;;;3.15;2.95;;;;;;;23.37;59.50;100528.75;4812287;29;20057;-69
2022/06/20 02:37:35;;;;;;;3.80;3.08;;;;;;;23.30;59.84;100534.97;4802617;29;20057;-69
2022/06/20 02:40:25;;;;;;;5.00;3.70;;;;;;;23.18;60.36;100535.13;4807244;29;20070;-69
2022/06/20 02:43:14;;;;;;;3.83;3.05;;;;;;;23.13;60.62;100529.84;4810291;29;20411;-69
2022/06/20 02:46:03;;;;;;;4.88;3.60;;;;;;;23.13;61.09;100539.03;4811998;29;20062;-69
2022/06/20 02:48:51;;;;;;;3.47;3.17;;;;;;;23.07;61.05;100526.56;4812035;29;20062;-69
2022/06/20 02:51:44;;;;;;;3.67;3.17;;;;;;;23.15;60.76;100527.47;4802033;29;20057;-69
2022/06/20 02:54:34;;;;;;;3.75;3.45;;;;;;;23.15;60.86;100530.28;4804618;29;20287;-69
2022/06/20 02:57:40;;;;;;;5.07;3.28;;;;;;;23.07;61.03;100527.34;4806701;29;20066;-69
2022/06/20 03:00:35;;;;;;;4.97;4.00;;;;;;;22.88;61.83;100533.72;4819871;29;20853;-69
2022/06/20 03:03:39;;;;;;;4.13;3.72;;;;;;;22.53;62.72;100524.22;4806014;29;20070;-69
2022/06/20 03:06:32;;;;;;;4.40;3.70;;;;;;;22.44;63.19;100523.59;4811671;29;20066;-69
2022/06/20 03:09:26;;;;;;;5.20;3.83;;;;;;;22.76;62.12;100531.88;4811592;29;20415;-69
2022/06/20 03:12:14;;;;;;;3.72;3.42;;;;;;;22.77;62.11;100518.75;4808158;29;20126;-68
2022/06/20 03:15:01;;;;;;;4.18;3.15;;;;;;;22.53;62.77;100521.41;4811294;29;20050;-69
2022/06/20 03:17:52;;;;;;;5.75;3.38;;;;;;;22.40;63.01;100509.53;4811397;29;20084;-69
2022/06/20 03:20:40;;;;;;;5.38;3.72;;;;;;;22.53;63.23;100527.00;4811655;29;20050;-69
2022/06/20 03:23:32;;;;;;;4.85;3.38;;;;;;;22.72;62.52;100525.41;4811400;29;20065;-69
2022/06/20 03:26:25;;;;;;;8.13;4.05;;;;;;;22.90;62.00;100528.59;4801734;29;20075;-69
2022/06/20 03:29:16;;;;;;;5.30;3.30;;;;;;;23.06;61.19;100533.28;4811274;29;20065;-69
2022/06/20 03:32:04;;;;;;;4.10;3.35;;;;;;;22.81;61.81;100537.19;4811289;29;20081;-69
2022/06/20 03:34:52;;;;;;;6.38;3.80;;;;;;;22.58;62.53;100528.69;4811451;29;20069;-69
2022/06/20 03:37:39;;;;;;;4.30;3.35;;;;;;;22.50;63.09;100530.50;4803557;29;20058;-69
2022/06/20 03:40:26;;;;;;;4.43;3.80;;;;;;;22.44;63.36;100523.59;4810673;29;20081;-69
2022/06/20 03:43:17;;;;;;;4.47;3.25;;;;;;;22.58;62.83;100533.47;4794769;29;20431;-69
2022/06/20 03:46:28;;;;;;;6.07;3.83;;;;;;;22.49;63.54;100536.44;4801150;29;20418;-69
2022/06/20 03:49:26;;;;;;;3.85;3.45;;;;;;;22.49;62.87;100530.84;4810984;29;20058;-69
2022/06/20 03:52:21;;;;;;;3.65;3.33;;;;;;;22.79;61.97;100539.50;4796526;29;20076;-69
2022/06/20 03:55:33;;;;;;;4.95;3.72;;;;;;;22.67;62.56;100537.66;4801187;29;20444;-69
2022/06/20 03:58:33;;;;;;;4.30;3.30;;;;;;;22.52;63.16;100533.75;4799106;29;20066;-69
2022/06/20 04:01:31;;;;;;;5.75;3.35;;;;;;;22.62;62.70;100529.59;4811270;29;20080;-69
2022/06/20 04:04:36;;;;;;;5.15;3.90;;;;;;;22.69;62.41;100538.09;4811103;29;20085;-70
2022/06/20 04:07:28;;;;;;;4.70;3.80;;;;;;;22.71;62.49;100539.72;4805312;29;20116;-70
2022/06/20 04:13:53;;;;;;;5.38;3.45;;;;;;;22.81;61.92;100531.59;4811273;29;20065;-70
2022/06/20 04:16:46;;;;;;;4.10;3.67;;;;;;;22.99;61.43;100530.34;4804825;29;20057;-70
2022/06/20 04:19:39;;;;;;;3.97;3.55;;;;;;;22.99;61.54;100533.16;4810724;29;20074;-70
2022/06/20 04:22:33;;;;;;;4.15;3.63;;;;;;;22.99;61.75;100533.16;4805272;29;20057;-70
2022/06/20 04:25:26;;;;;;;5.72;3.78;;;;;;;23.17;61.34;100541.91;4805055;29;20061;-71
2022/06/20 04:28:22;;;;;;;4.72;3.50;;;;;;;23.21;60.65;100548.34;4811604;29;20069;-70
2022/06/20 04:31:41;;;;;;;7.78;3.95;;;;;;;23.39;60.00;100543.16;4802821;29;20602;-70
2022/06/20 04:34:30;;;;;;;4.20;3.55;;;;;;;23.31;60.44;100542.19;4795900;29;20050;-70
2022/06/20 04:37:24;;;;;;;5.32;3.58;;;;;;;23.30;60.47;100543.34;4814091;29;20069;-68
2022/06/20 04:40:15;;;;;;;6.55;3.70;;;;;;;23.51;59.94;100539.38;4811963;29;20078;-70
2022/06/20 04:43:07;;;;;;;3.47;3.17;;;;;;;23.37;60.44;100539.13;4803816;29;20066;-70
2022/06/20 04:46:04;;;;;;;4.50;3.88;;;;;;;23.52;60.27;100545.78;4801704;29;20054;-70
2022/06/20 04:48:51;;;;;;;4.55;3.67;;;;;;;23.61;59.58;100546.38;4814262;29;20533;-70
2022/06/20 04:51:40;;;;;;;4.00;3.70;;;;;;;23.68;59.93;100552.06;4805833;29;20074;-70
2022/06/20 04:54:27;;;;;;;6.53;3.90;;;;;;;24.00;58.59;100557.41;4804401;29;20049;-78
2022/06/20 04:57:15;;;;;;;5.93;3.70;;;;;;;24.25;57.51;100542.28;4796225;29;20061;-77
2022/06/20 05:00:06;;;;;;;4.35;3.65;;;;;;;24.62;55.48;100532.41;4789865;29;20066;-75
2022/06/20 05:02:55;;;;;;;5.05;3.95;;;;;;;24.70;55.45;100537.72;4808768;29;20058;-75
2022/06/20 05:05:49;;;;;;;4.20;3.75;;;;;;;24.82;55.19;100541.50;4804280;29;20058;-76
2022/06/20 05:08:50;;;;;;;4.60;3.40;;;;;;;25.04;55.05;100544.59;4791154;29;20062;-76
2022/06/20 05:11:45;;;;;;;3.90;3.50;;;;;;;25.14;54.63;100545.91;4803606;29;20070;-76
2022/06/20 05:14:49;;;;;;;5.82;3.92;;;;;;;25.16;54.66;100544.34;4811219;29;20730;-76
2022/06/20 05:17:38;;;;;;;5.60;3.70;;;;;;;25.14;54.13;100541.13;4809316;29;20403;-76
2022/06/20 05:20:30;;;;;;;3.75;3.45;;;;;;;25.38;53.31;100553.00;4790883;29;20506;-76
2022/06/20 05:23:38;;;;;;;3.72;3.40;;;;;;;25.56;52.62;100549.63;4796164;29;20066;-75
2022/06/20 05:26:38;;;;;;;3.85;3.45;;;;;;;25.56;52.63;100553.22;4807947;29;20439;-76
2022/06/20 05:29:29;;;;;;;3.85;3.50;;;;;;;25.50;52.67;100560.31;4794765;29;20067;-76
2022/06/20 05:32:26;;;;;;;3.95;3.28;;;;;;;25.54;52.98;100551.97;4802422;29;20090;-76
2022/06/20 05:35:24;;;;;;;6.00;3.60;;;;;;;25.65;52.36;100554.91;4810431;29;20069;-75
2022/06/20 05:37:55;;;;;;;4.55;2.97;;;;;;;25.73;52.23;100565.81;4765081;29;20075;-76
2022/06/20 05:40:36;;;;;;;3.88;3.50;;;;;;;25.90;51.54;100557.94;4779697;29;20051;-71
2022/06/20 05:43:10;;;;;;;7.15;3.92;;;;;;;25.84;52.11;100562.28;4797969;29;20057;-74
2022/06/20 05:45:37;;;;;;;;;;;;;;;25.91;52.29;100570.78;4791396;29;20055;-75
2022/06/20 05:48:12;;;;;;;4.72;3.83;;;;;;;25.99;52.55;100566.84;4783746;29;20017;-73
2022/06/20 05:50:56;;;;;;;5.03;4.15;;;;;;;25.81;52.91;100554.66;4786956;29;20068;-74
2022/06/20 05:53:33;;;;;;;8.60;4.97;;;;;;;25.82;52.75;100567.47;4783290;29;20404;-74
2022/06/20 05:56:11;;;;;;;6.80;4.05;;;;;;;25.93;52.57;100573.16;4784216;29;20521;-74
2022/06/20 05:58:42;;;;;;;7.63;5.40;;;;;;;26.00;52.46;100565.63;4789184;29;20051;-75
2022/06/20 06:01:16;;;;;;;5.68;5.07;;;;;;;26.18;52.16;100570.59;4788614;29;20602;-75
2022/06/20 06:04:05;;;;;;;7.55;5.70;;;;;;;26.10;52.52;100577.34;4784210;29;20055;-75
2022/06/20 06:06:45;;;;;;;7.10;5.60;;;;;;;26.12;52.65;100580.56;4780353;29;20400;-73
2022/06/20 06:09:23;;;;;;;6.50;5.80;;;;;;;26.14;52.96;100578.16;4786782;29;20063;-74
2022/06/20 06:12:01;;;;;;;7.25;5.22;;;;;;;26.20;52.23;100581.44;4793849;29;20051;-74
2022/06/20 06:14:39;;;;;;;5.40;4.38;;;;;;;26.35;52.34;100586.00;4801667;29;20059;-75
2022/06/20 06:17:25;;;;;;;8.50;5.40;;;;;;;26.43;51.96;100578.41;4782289;29;20062;-74
2022/06/20 06:20:20;;;;;;;8.80;5.95;;;;;;;26.58;51.08;100582.13;4800030;29;20050;-74
2022/06/20 06:22:52;;;;;;;9.52;5.53;;;;;;;26.58;51.03;100575.72;4787445;29;20047;-74
2022/06/20 06:25:28;;;;;;;6.00;5.13;;;;;;;26.60;50.68;100588.16;4786090;29;20059;-74
2022/06/20 06:28:01;;;;;;;7.07;4.45;;;;;;;26.54;50.13;100579.31;4786957;29;20066;-74
2022/06/20 06:30:57;;;;;;;11.03;4.93;;;;;;;26.68;49.96;100589.81;4786726;29;20054;-74
2022/06/20 06:33:33;;;;;;;6.47;4.82;;;;;;;26.68;50.54;100580.59;4786907;29;20399;-74
2022/06/20 06:36:18;;;;;;;10.48;4.70;;;;;;;26.66;50.40;100586.59;4789784;29;20059;-74
2022/06/20 06:39:04;;;;;;;6.32;4.82;;;;;;;26.66;50.33;100585.78;4786835;29;20063;-74
2022/06/20 06:41:45;;;;;;;8.05;4.85;;;;;;;26.71;50.32;100574.19;4779548;29;20089;-74
2022/06/20 06:44:18;;;;;;;5.47;3.78;;;;;;;26.75;49.69;100575.03;4788609;29;20059;-74
2022/06/20 06:46:51;;;;;;;3.92;3.60;;;;;;;26.84;49.66;100583.88;4786558;29;20055;-74
2022/06/20 06:49:31;;;;;;;4.97;4.43;;;;;;;26.83;49.43;100575.84;4786380;29;20070;-74
2022/06/20 06:52:09;;;;;;;4.82;3.47;;;;;;;26.92;49.30;100573.53;4787055;29;20313;-74
2022/06/20 06:54:43;;;;;;;3.83;3.53;;;;;;;27.00;49.23;100571.56;4788146;29;20090;-74
2022/06/20 06:57:28;;;;;;;3.95;3.58;;;;;;;27.08;49.77;100576.00;4789272;29;20070;-74
2022/06/20 07:00:05;;;;;;;4.47;3.97;;;;;;;27.14;49.44;100581.25;4786823;29;20051;-74
2022/06/20 07:02:42;;;;;;;6.07;3.53;;;;;;;27.21;49.29;100570.03;4784286;29;20067;-74
2022/06/20 07:05:32;;;;;;;3.80;3.50;;;;;;;27.19;49.58;100572.44;4786313;29;20077;-74
2022/06/20 07:08:37;;;;;;;4.40;3.58;;;;;;;27.23;49.52;100567.66;4786446;29;20062;-74
2022/06/20 07:11:21;;;;;;;7.03;4.03;;;;;;;27.30;49.25;100572.47;4784545;29;20063;-74
2022/06/20 07:14:22;;;;;;;7.28;3.40;;;;;;;27.37;49.37;100578.94;4800935;29;20062;-74
2022/06/20 07:17:33;;;;;;;3.15;2.95;;;;;;;27.32;49.73;100575.72;4803075;29;20067;-74
2022/06/20 07:20:03;;;;;;;3.60;3.30;;;;;;;27.49;49.32;100574.16;4786187;29;20055;-74
2022/06/20 07:22:38;;;;;;;7.53;3.60;;;;;;;27.66;48.47;100575.41;4776705;29;20050;-74
2022/06/20 07:25:13;;;;;;;5.60;3.75;;;;;;;27.72;48.40;100570.22;4785990;29;20058;-74
2022/06/20 07:27:48;;;;;;;5.97;3.08;;;;;;;27.88;47.79;100562.22;4777286;29;20073;-74
2022/06/20 07:30:23;;;;;;;19.17;3.83;;;;;;;27.85;48.73;100574.25;4786235;29;20059;-74
2022/06/20 07:32:58;;;;;;;6.53;3.63;;;;;;;27.86;48.30;100570.22;4777213;29;20070;-74
2022/06/20 07:35:32;;;;;;;5.18;3.53;;;;;;;27.91;48.51;100566.22;4786291;29;20062;-74
2022/06/20 07:38:09;;;;;;;39.08;5.90;;;;;;;28.01;47.93;100573.06;4785890;29;20069;-74
2022/06/20 07:40:52;;;;;;;15.52;4.25;;;;;;;27.96;48.15;100563.00;4785353;29;20058;-75
2022/06/20 07:43:30;;;;;;;15.82;4.63;;;;;;;28.08;47.59;100558.19;4785699;29;20484;-75
2022/06/20 07:46:06;;;;;;;19.15;4.45;;;;;;;28.14;47.53;100557.38;4786494;29;20066;-74
2022/06/20 07:48:41;;;;;;;19.55;4.85;;;;;;;28.25;48.07;100551.00;4785972;29;20411;-74
2022/06/20 07:51:21;;;;;;;8.93;3.75;;;;;;;28.26;46.24;100544.94;4787220;29;20079;-74
2022/06/20 07:54:02;;;;;;;10.70;3.88;;;;;;;28.30;46.62;100554.19;4785903;29;20066;-75
2022/06/20 07:56:38;;;;;;;10.90;3.47;;;;;;;28.34;46.21;100554.19;4788713;29;20069;-75
2022/06/20 07:59:12;;;;;;;4.85;3.25;;;;;;;28.39;46.32;100552.97;4785436;29;20055;-74
2022/06/20 08:02:06;;;;;;;6.35;3.08;;;;;;;28.45;45.68;100551.38;4773160;29;20047;-74
2022/06/20 08:04:35;;;;;;;;;;;;;;;28.48;45.92;100556.16;4787616;29;20070;-74
2022/06/20 08:07:06;;;;;;;4.00;3.20;;;;;;;28.59;46.11;100558.94;4785952;29;20373;-75
2022/06/20 08:09:42;;;;;;;14.88;3.95;;;;;;;28.55;45.81;100549.72;4784635;29;20055;-74
2022/06/20 08:12:38;;;;;;;4.55;3.28;;;;;;;28.73;44.98;100557.31;4784957;29;20067;-75
2022/06/20 08:15:14;;;;;;;3.47;3.17;;;;;;;28.75;44.48;100546.44;4787881;29;20039;-74
2022/06/20 08:17:42;;;;;;;5.22;3.55;;;;;;;28.69;44.80;100546.88;4785308;29;20055;-75
2022/06/20 08:20:11;;;;;;;6.07;3.42;;;;;;;28.75;44.97;100546.44;4787315;29;20407;-75
2022/06/20 08:23:15;;;;;;;3.47;3.13;;;;;;;28.79;45.03;100550.84;4788666;29;20054;-75
2022/06/20 08:25:58;;;;;;;3.58;2.72;;;;;;;28.91;44.95;100538.38;4780188;29;20410;-75
2022/06/20 08:28:35;;;;;;;3.53;2.72;;;;;;;29.01;43.85;100533.91;4784612;29;20055;-75
2022/06/20 08:31:50;;;;;;;5.20;2.97;;;;;;;29.03;43.97;100537.13;4773831;29;20054;-75
2022/06/20 08:34:36;;;;;;;3.50;3.20;;;;;;;29.09;44.05;100551.59;4736323;30;20060;-74
2022/06/20 08:37:33;;;;;;;3.38;3.08;;;;;;;29.12;43.20;100536.66;4798988;29;20399;-75
2022/06/20 08:40:38;;;;;;;3.95;3.05;;;;;;;29.26;42.92;100537.84;4799147;29;20047;-74
2022/06/20 08:43:10;;;;;;;2.80;2.60;;;;;;;29.39;43.21;100536.13;4788674;29;20472;-74
2022/06/20 08:46:08;;;;;;;4.68;3.47;;;;;;;29.41;42.22;100536.50;4796359;29;20059;-74
2022/06/20 08:48:59;;;;;;;6.25;3.15;;;;;;;29.57;41.84;100524.75;4784335;29;20056;-74
2022/06/20 08:52:06;;;;;;;3.72;3.20;;;;;;;29.58;41.68;100517.94;4788018;29;20054;-75
2022/06/20 08:54:55;;;;;;;7.40;3.13;;;;;;;29.71;41.35;100526.69;4765086;29;20054;-75
2022/06/20 08:57:49;;;;;;;3.92;2.67;;;;;;;29.74;41.65;100520.22;4785568;29;20500;-75
2022/06/20 09:01:00;;;;;;;3.47;3.17;;;;;;;29.86;41.12;100512.47;4768590;29;20071;-74
2022/06/20 09:03:43;;;;;;;6.25;3.40;;;;;;;29.91;41.35;100517.69;4785033;29;20482;-75
2022/06/20 09:06:25;;;;;;;3.80;2.87;;;;;;;30.09;41.12;100509.06;4783700;29;20065;-75
2022/06/20 09:09:17;;;;;;;4.80;3.38;;;;;;;30.22;40.58;100511.38;4784761;29;20305;-75
2022/06/20 09:11:50;;;;;;;4.40;3.13;;;;;;;30.32;40.30;100518.94;4787103;29;20067;-75
2022/06/20 09:14:34;;;;;;;4.80;3.10;;;;;;;30.29;40.01;100509.28;4788369;29;20067;-75
2022/06/20 09:17:14;;;;;;;3.58;3.28;;;;;;;30.41;40.47;100515.63;4779314;29;20065;-74
2022/06/20 09:19:53;;;;;;;3.42;2.97;;;;;;;30.55;40.25;100511.84;4787977;29;20518;-75
2022/06/20 09:22:37;;;;;;;3.83;2.85;;;;;;;30.65;39.48;100507.28;4790237;29;20055;-75
2022/06/20 09:25:22;;;;;;;4.43;3.50;;;;;;;30.63;39.89;100507.69;4787995;29;20074;-74
2022/06/20 09:27:57;;;;;;;6.90;3.40;;;;;;;30.68;39.71;100507.25;4779656;29;20059;-74
2022/06/20 09:30:48;;;;;;;3.85;3.45;;;;;;;30.71;39.79;100488.69;4788919;29;20403;-74
2022/06/20 09:33:45;;;;;;;4.18;3.15;;;;;;;30.80;39.44;100496.63;4788378;29;20059;-74
2022/06/20 09:36:38;;;;;;;9.02;3.70;;;;;;;30.73;39.29;100500.34;4763458;29;20054;-74
2022/06/20 09:39:28;;;;;;;4.18;3.33;;;;;;;30.75;39.39;100495.09;4789632;29;20067;-74
2022/06/20 09:42:21;;;;;;;3.78;3.40;;;;;;;30.75;39.20;100482.97;4787702;29;20086;-74
2022/06/20 09:45:21;;;;;;;4.53;3.60;;;;;;;30.83;39.11;100482.47;4779386;29;20065;-74
2022/06/20 09:48:18;;;;;;;4.35;3.22;;;;;;;30.79;39.06;100487.34;4787366;29;20055;-74
2022/06/20 09:51:04;;;;;;;4.45;3.10;;;;;;;30.66;38.81;100483.47;4785608;29;20082;-74
2022/06/20 09:53:36;;;;;;;3.28;2.97;;;;;;;30.87;38.50;100464.69;4787624;29;20062;-74
2022/06/20 09:56:34;;;;;;;4.20;3.17;;;;;;;31.02;38.01;100466.06;4787528;29;20388;-74
2022/06/20 09:59:31;;;;;;;3.35;2.63;;;;;;;31.17;38.17;100463.06;4787750;29;20092;-73
2022/06/20 10:02:35;;;;;;;3.33;3.03;;;;;;;31.31;37.77;100468.50;4766301;29;20063;-74
2022/06/20 10:05:06;;;;;;;3.95;3.10;;;;;;;31.25;37.97;100456.06;4787440;29;20408;-74
2022/06/20 10:07:54;;;;;;;4.68;2.97;;;;;;;31.35;37.82;100457.16;4784346;29;20529;-74
2022/06/20 10:10:48;;;;;;;7.63;3.60;;;;;;;31.52;36.74;100455.25;4787560;29;20503;-74
2022/06/20 10:13:31;;;;;;;10.50;3.65;;;;;;;31.66;37.15;100464.75;4788824;29;20058;-74
2022/06/20 10:16:22;;;;;;;6.20;3.25;;;;;;;31.83;36.24;100465.66;4787134;29;20059;-74
2022/06/20 10:19:31;;;;;;;4.10;3.05;;;;;;;32.03;36.02;100462.91;4780267;29;20058;-74
2022/06/20 10:22:11;;;;;;;3.92;3.63;;;;;;;32.02;36.10;100452.81;4778784;29;20055;-74
2022/06/20 10:24:57;;;;;;;4.18;3.60;;;;;;;32.21;36.04;100445.59;4778355;29;20058;-74
2022/06/20 10:27:56;;;;;;;3.67;3.10;;;;;;;32.28;34.94;100439.78;4776702;29;20051;-74
2022/06/20 10:30:58;;;;;;;4.55;3.33;;;;;;;32.20;35.37;100438.31;4775093;29;20039;-74
2022/06/20 10:33:39;;;;;;;6.53;3.30;;;;;;;32.17;35.58;100442.81;4780564;29;20078;-74
2022/06/20 10:36:18;;;;;;;3.80;3.33;;;;;;;32.30;35.54;100442.19;4779004;29;20051;-75
2022/06/20 10:39:00;;;;;;;3.22;3.03;;;;;;;32.34;35.83;100431.56;4787308;29;20055;-74
2022/06/20 10:41:48;;;;;;;5.70;4.00;;;;;;;32.41;35.74;100425.78;4796822;29;20056;-74
2022/06/20 10:44:44;;;;;;;4.22;3.80;;;;;;;32.57;36.18;100429.91;4792793;29;20054;-75
2022/06/20 10:47:36;;;;;;;6.40;3.72;;;;;;;32.64;34.86;100432.59;4770385;29;20059;-74
2022/06/20 10:50:29;;;;;;;4.32;3.20;;;;;;;32.82;35.33;100429.38;4772166;29;20066;-74
2022/06/20 10:53:10;;;;;;;3.42;3.00;;;;;;;32.95;35.58;100412.47;4784801;29;20059;-74
2022/06/20 10:56:03;;;;;;;4.20;3.65;;;;;;;32.87;35.18;100405.38;4785518;29;20075;-75
2022/06/20 10:58:45;;;;;;;3.33;3.03;;;;;;;32.88;34.64;100398.47;4785531;29;20051;-74
2022/06/20 11:01:23;;;;;;;5.32;3.08;;;;;;;32.87;34.96;100401.75;4784840;29;20059;-75
2022/06/20 11:04:10;;;;;;;4.00;3.47;;;;;;;33.10;34.72;100395.97;4782471;29;20066;-74
2022/06/20 11:06:41;;;;;;;4.25;3.28;;;;;;;33.11;35.04;100399.59;4780521;29;20055;-74
2022/06/20 11:09:40;;;;;;;3.50;3.20;;;;;;;33.33;34.36;100393.41;4785764;29;20059;-74
2022/06/20 11:12:46;;;;;;;5.13;3.30;;;;;;;33.40;34.35;100390.41;4781999;29;20066;-74
2022/06/20 11:15:43;;;;;;;4.43;2.97;;;;;;;33.67;34.28;100383.63;4769759;29;20403;-74
2022/06/20 11:18:22;;;;;;;3.25;2.95;;;;;;;33.70;34.26;100388.44;4766099;29;20047;-74
2022/06/20 11:21:17;;;;;;;3.17;2.95;;;;;;;33.76;34.40;100377.31;4786075;29;20047;-74
2022/06/20 11:23:58;;;;;;;3.45;3.08;;;;;;;33.79;34.25;100384.94;4770032;29;20074;-74
2022/06/20 11:26:40;;;;;;;3.47;3.20;;;;;;;33.96;33.49;100382.84;4788332;29;20050;-75
2022/06/20 11:29:38;;;;;;;5.85;3.50;;;;;;;34.18;32.57;100371.72;4780402;29;20063;-75
2022/06/20 11:32:11;;;;;;;3.10;2.80;;;;;;;34.38;31.96;100384.13;4783842;29;20055;-74
2022/06/20 11:34:42;;;;;;;3.30;3.03;;;;;;;34.27;32.92;100373.91;4782491;29;20051;-74
2022/06/20 11:37:40;;;;;;;4.57;2.90;;;;;;;34.26;32.29;100360.16;4784984;29;20514;-74
2022/06/20 11:40:39;;;;;;;3.60;3.30;;;;;;;34.28;32.12;100372.66;4786242;29;20051;-73
2022/06/20 11:43:41;;;;;;;4.55;3.00;;;;;;;34.33;31.62;100367.66;4803710;29;20499;-74
2022/06/20 11:46:22;;;;;;;3.10;2.88;;;;;;;34.43;30.39;100373.03;4787623;29;20058;-75
2022/06/20 11:49:19;;;;;;;4.63;3.10;;;;;;;34.72;29.38;100374.22;4797533;29;20047;-74
2022/06/20 11:52:06;;;;;;;2.70;2.50;;;;;;;34.90;28.96;100370.00;4783114;29;20070;-75
2022/06/20 11:54:41;;;;;;;2.70;2.50;;;;;;;35.09;28.58;100360.44;4783228;29;20051;-74
2022/06/20 11:57:37;;;;;;;4.55;3.10;;;;;;;35.19;28.87;100369.09;4785492;29;20058;-74
2022/06/20 12:00:26;;;;;;;3.17;2.97;;;;;;;35.37;27.89;100369.28;4798998;29;20066;-74
2022/06/20 12:03:21;;;;;;;3.08;2.85;;;;;;;35.43;27.92;100366.63;4771886;29;20527;-75
2022/06/20 12:06:21;;;;;;;3.70;2.70;;;;;;;35.35;27.71;100354.72;4766614;29;20059;-74
2022/06/20 12:09:24;;;;;;;2.65;2.50;;;;;;;35.52;27.29;100354.53;4768410;29;20399;-75
2022/06/20 12:12:20;;;;;;;2.83;2.63;;;;;;;35.49;27.38;100344.88;4760206;30;20067;-75
2022/06/20 12:15:23;;;;;;;3.80;2.92;;;;;;;35.63;26.90;100345.69;4774177;29;20054;-75
2022/06/20 12:18:23;;;;;;;5.68;2.75;;;;;;;35.49;27.52;100342.03;4796069;29;20050;-75
2022/06/20 12:23:53;;;;;;;4.55;2.67;;;;;;;35.48;26.85;100346.13;4789463;29;20063;-75
2022/06/20 12:26:32;;;;;;;3.00;2.63;;;;;;;35.46;27.02;100337.28;4784871;30;20055;-75
2022/06/20 12:29:06;;;;;;;4.00;2.90;;;;;;;35.74;27.00;100331.06;4784886;29;20046;-75
2022/06/20 12:31:37;;;;;;;3.45;2.58;;;;;;;35.98;26.11;100333.44;4788601;29;20051;-75
2022/06/20 12:34:14;;;;;;;2.83;2.47;;;;;;;35.91;26.32;100323.91;4782065;29;20410;-74
2022/06/20 12:36:48;;;;;;;3.70;2.45;;;;;;;36.02;26.04;100325.56;4788412;29;20063;-74
2022/06/20 12:39:25;;;;;;;3.60;2.90;;;;;;;35.95;25.70;100315.22;4776447;29;20052;-74
2022/06/20 12:42:16;;;;;;;4.32;2.90;;;;;;;36.17;25.62;100308.75;4784375;29;20050;-74
2022/06/20 12:45:03;;;;;;;2.58;2.38;;;;;;;36.26;25.66;100310.84;4785413;29;20075;-74
2022/06/20 12:47:55;;;;;;;2.58;2.38;;;;;;;36.31;25.17;100307.41;4786521;29;20047;-74
2022/06/20 12:50:33;;;;;;;6.53;2.28;;;;;;;36.33;25.49;100298.38;4787569;29;20062;-74
2022/06/20 12:53:25;;;;;;;5.47;2.75;;;;;;;36.22;25.13;100302.44;4802509;29;20062;-74
2022/06/20 12:56:14;;;;;;;2.97;2.53;;;;;;;36.34;25.63;100297.91;4788862;29;20059;-74
2022/06/20 12:59:07;;;;;;;4.88;2.55;;;;;;;36.43;25.34;100297.97;4815832;29;20062;-75
2022/06/20 13:02:05;;;;;;;3.83;2.67;;;;;;;36.72;25.04;100293.16;4791720;29;20070;-74
2022/06/20 13:04:36;;;;;;;7.88;3.03;;;;;;;36.87;24.64;100289.72;4782375;29;20069;-74